Pagina principale
METAR-TAF:

METAR-TAF

Aeroporti :

Aeroporto Internazionale del Bahrein

Bahrain, Bahrain

latitudine: 26-16N, longitudine: 050-39E, altezza: 2 m

Osservazione

Il bollettino è stato emesso 26 minuti fa, alle 13:00 UTC
Vento 6 kt da nord-ovest, variando fra ovest e nord/nord-ovest
Temperature 24°C
Umidità 38%
Pressione 1020 hPa
Visibilità 10 km o più
nessuna nube inferiore a 1500 m e nessun cumulonembo

METAR: OBBI 181300Z 32006KT 280V340 CAVOK 24/09 Q1020 NOSIG

Ora: 16:26 (13:26 UTC)

Previsione

Il bollettino è stato emesso 2 ore e 26 minuti fa, alle 11:00 UTC
Previsione valida dal 18 alle 12 UTC al 19 alle 18 UTC
Vento 5 kt da direzioni variabili
Visibilità 10 km o più
Poco nuvoloso ad un'altezza di 2500 ft
Evoluzione graduale
dal 19 alle 04 UTC al 19 alle 06 UTC
Vento 10 kt da nord/nord-ovest

TAF: OBBI 181100Z 1812/1918 VRB05KT 9999 FEW025 BECMG 1904/1906 33010KT

Osservazioni e previsioni meteorologiche di più di 4000 aeroporti (messaggi METAR e TAF).

Le stazioni disponibili sono rappresentate dai dischi gialli e rossi sulla carta.

Puntare il mouse per vedere il nome della stazione.

Clicca sopra per visualizzare le osservazioni e previsioni meteorologiche.

Per cambiare la mappa : fare clic sui pulsanti verdi con una croce nera per ingrandire, il pulsante verde con un trattino per diminuire, o sulla freccia verde per le mappe adiacenti.


METAR-TAF: